sensor_id;sensor_type;location;lat;lon;timestamp;P1;durP1;ratioP1;P2;durP2;ratioP2
83495;SDS011;73431;40.794;43.836;2024-03-23T00:55:18;2.13;;;1.60;;
83495;SDS011;73431;40.794;43.836;2024-03-23T00:57:45;3.83;;;2.38;;
83495;SDS011;73431;40.794;43.836;2024-03-23T01:00:11;3.13;;;2.33;;
83495;SDS011;73431;40.794;43.836;2024-03-23T01:02:38;4.65;;;2.38;;
83495;SDS011;73431;40.794;43.836;2024-03-23T01:05:05;4.28;;;2.05;;
83495;SDS011;73431;40.794;43.836;2024-03-23T01:07:31;6.10;;;2.53;;
83495;SDS011;73431;40.794;43.836;2024-03-23T01:09:57;5.28;;;2.45;;
83495;SDS011;73431;40.794;43.836;2024-03-23T01:12:24;5.05;;;2.72;;
83495;SDS011;73431;40.794;43.836;2024-03-23T01:14:50;3.47;;;2.10;;
83495;SDS011;73431;40.794;43.836;2024-03-23T01:17:16;3.42;;;2.10;;
83495;SDS011;73431;40.794;43.836;2024-03-23T01:19:43;2.67;;;1.90;;
83495;SDS011;73431;40.794;43.836;2024-03-23T01:22:09;2.40;;;1.55;;
83495;SDS011;73431;40.794;43.836;2024-03-23T01:24:36;3.63;;;1.92;;
83495;SDS011;73431;40.794;43.836;2024-03-23T01:27:02;3.45;;;1.90;;
83495;SDS011;73431;40.794;43.836;2024-03-23T01:29:29;3.20;;;1.75;;
83495;SDS011;73431;40.794;43.836;2024-03-23T01:31:55;3.30;;;1.92;;
83495;SDS011;73431;40.794;43.836;2024-03-23T01:34:22;2.13;;;1.65;;
83495;SDS011;73431;40.794;43.836;2024-03-23T01:36:50;4.30;;;1.88;;
83495;SDS011;73431;40.794;43.836;2024-03-23T01:39:17;4.78;;;2.00;;
83495;SDS011;73431;40.794;43.836;2024-03-23T01:41:43;2.67;;;1.50;;
83495;SDS011;73431;40.794;43.836;2024-03-23T01:44:10;3.08;;;1.63;;
83495;SDS011;73431;40.794;43.836;2024-03-23T01:46:37;5.78;;;2.28;;
83495;SDS011;73431;40.794;43.836;2024-03-23T01:49:07;3.10;;;1.70;;
83495;SDS011;73431;40.794;43.836;2024-03-23T01:51:36;2.65;;;1.88;;
83495;SDS011;73431;40.794;43.836;2024-03-23T01:54:03;3.45;;;2.03;;
83495;SDS011;73431;40.794;43.836;2024-03-23T01:56:32;6.45;;;2.63;;
83495;SDS011;73431;40.794;43.836;2024-03-23T01:59:04;5.00;;;2.38;;
83495;SDS011;73431;40.794;43.836;2024-03-23T02:01:31;4.63;;;2.60;;
83495;SDS011;73431;40.794;43.836;2024-03-23T02:03:58;4.10;;;2.35;;
83495;SDS011;73431;40.794;43.836;2024-03-23T02:06:25;4.03;;;2.20;;
83495;SDS011;73431;40.794;43.836;2024-03-23T02:08:51;2.42;;;1.73;;
83495;SDS011;73431;40.794;43.836;2024-03-23T02:11:18;4.70;;;2.00;;
83495;SDS011;73431;40.794;43.836;2024-03-23T02:13:44;2.88;;;2.08;;
83495;SDS011;73431;40.794;43.836;2024-03-23T02:16:10;3.35;;;2.28;;
83495;SDS011;73431;40.794;43.836;2024-03-23T02:18:37;3.63;;;2.17;;
83495;SDS011;73431;40.794;43.836;2024-03-23T02:21:03;4.07;;;2.08;;
83495;SDS011;73431;40.794;43.836;2024-03-23T02:23:30;2.95;;;1.70;;
83495;SDS011;73431;40.794;43.836;2024-03-23T02:25:57;3.17;;;2.30;;
83495;SDS011;73431;40.794;43.836;2024-03-23T02:28:23;4.63;;;1.88;;
83495;SDS011;73431;40.794;43.836;2024-03-23T02:30:50;3.10;;;2.05;;
83495;SDS011;73431;40.794;43.836;2024-03-23T02:33:16;3.88;;;1.92;;
83495;SDS011;73431;40.794;43.836;2024-03-23T02:35:46;6.43;;;2.35;;
83495;SDS011;73431;40.794;43.836;2024-03-23T02:38:13;4.10;;;2.40;;
83495;SDS011;73431;40.794;43.836;2024-03-23T02:40:40;4.40;;;2.58;;
83495;SDS011;73431;40.794;43.836;2024-03-23T02:43:06;4.00;;;2.47;;
83495;SDS011;73431;40.794;43.836;2024-03-23T02:45:32;3.17;;;1.90;;
83495;SDS011;73431;40.794;43.836;2024-03-23T02:47:59;3.22;;;1.95;;
83495;SDS011;73431;40.794;43.836;2024-03-23T02:50:25;3.45;;;1.80;;
83495;SDS011;73431;40.794;43.836;2024-03-23T02:52:51;3.03;;;1.73;;
83495;SDS011;73431;40.794;43.836;2024-03-23T02:55:18;2.90;;;1.73;;
83495;SDS011;73431;40.794;43.836;2024-03-23T02:57:44;3.42;;;1.90;;
83495;SDS011;73431;40.794;43.836;2024-03-23T03:00:11;3.40;;;1.83;;
83495;SDS011;73431;40.794;43.836;2024-03-23T03:02:38;5.07;;;1.90;;
83495;SDS011;73431;40.794;43.836;2024-03-23T03:05:05;4.78;;;2.13;;
83495;SDS011;73431;40.794;43.836;2024-03-23T03:07:32;5.82;;;2.30;;
83495;SDS011;73431;40.794;43.836;2024-03-23T03:09:59;5.15;;;2.83;;
83495;SDS011;73431;40.794;43.836;2024-03-23T03:12:25;4.57;;;2.10;;
83495;SDS011;73431;40.794;43.836;2024-03-23T03:14:52;4.28;;;2.17;;
83495;SDS011;73431;40.794;43.836;2024-03-23T03:17:19;3.15;;;2.13;;
83495;SDS011;73431;40.794;43.836;2024-03-23T03:19:45;4.10;;;1.63;;
83495;SDS011;73431;40.794;43.836;2024-03-23T03:22:13;5.85;;;3.35;;
83495;SDS011;73431;40.794;43.836;2024-03-23T03:24:39;6.93;;;3.50;;
83495;SDS011;73431;40.794;43.836;2024-03-23T03:27:06;5.43;;;3.47;;
83495;SDS011;73431;40.794;43.836;2024-03-23T03:29:33;6.70;;;3.17;;
83495;SDS011;73431;40.794;43.836;2024-03-23T03:32:02;4.18;;;2.55;;
83495;SDS011;73431;40.794;43.836;2024-03-23T03:34:29;4.30;;;2.65;;
83495;SDS011;73431;40.794;43.836;2024-03-23T03:36:56;6.53;;;3.25;;
83495;SDS011;73431;40.794;43.836;2024-03-23T03:39:23;6.38;;;3.03;;
83495;SDS011;73431;40.794;43.836;2024-03-23T03:41:50;4.93;;;3.08;;
83495;SDS011;73431;40.794;43.836;2024-03-23T03:44:16;4.95;;;2.92;;
83495;SDS011;73431;40.794;43.836;2024-03-23T03:46:43;4.00;;;2.28;;
83495;SDS011;73431;40.794;43.836;2024-03-23T03:49:09;3.70;;;2.70;;
83495;SDS011;73431;40.794;43.836;2024-03-23T03:51:36;6.13;;;2.70;;
83495;SDS011;73431;40.794;43.836;2024-03-23T03:54:02;4.75;;;3.28;;
83495;SDS011;73431;40.794;43.836;2024-03-23T03:56:29;6.15;;;3.03;;
83495;SDS011;73431;40.794;43.836;2024-03-23T03:58:55;7.43;;;3.78;;
83495;SDS011;73431;40.794;43.836;2024-03-23T04:01:22;7.65;;;3.70;;
83495;SDS011;73431;40.794;43.836;2024-03-23T04:03:48;6.93;;;3.42;;
83495;SDS011;73431;40.794;43.836;2024-03-23T04:06:18;8.43;;;4.13;;
83495;SDS011;73431;40.794;43.836;2024-03-23T04:08:45;9.32;;;4.95;;
83495;SDS011;73431;40.794;43.836;2024-03-23T04:11:11;8.00;;;4.45;;
83495;SDS011;73431;40.794;43.836;2024-03-23T04:13:38;7.60;;;4.22;;
83495;SDS011;73431;40.794;43.836;2024-03-23T04:16:07;5.95;;;3.40;;
83495;SDS011;73431;40.794;43.836;2024-03-23T04:18:35;12.80;;;4.10;;
83495;SDS011;73431;40.794;43.836;2024-03-23T04:21:02;6.88;;;3.63;;
83495;SDS011;73431;40.794;43.836;2024-03-23T04:23:28;5.63;;;3.10;;
83495;SDS011;73431;40.794;43.836;2024-03-23T04:25:55;6.35;;;3.22;;
83495;SDS011;73431;40.794;43.836;2024-03-23T04:28:21;8.38;;;3.50;;
83495;SDS011;73431;40.794;43.836;2024-03-23T04:30:49;7.00;;;3.47;;
83495;SDS011;73431;40.794;43.836;2024-03-23T04:33:15;6.03;;;3.42;;
83495;SDS011;73431;40.794;43.836;2024-03-23T04:35:41;6.13;;;3.17;;
83495;SDS011;73431;40.794;43.836;2024-03-23T04:38:08;7.53;;;3.92;;
83495;SDS011;73431;40.794;43.836;2024-03-23T04:40:35;11.15;;;3.90;;
83495;SDS011;73431;40.794;43.836;2024-03-23T04:43:01;7.72;;;4.55;;
83495;SDS011;73431;40.794;43.836;2024-03-23T04:45:27;13.18;;;7.40;;
83495;SDS011;73431;40.794;43.836;2024-03-23T04:47:54;7.65;;;5.18;;
83495;SDS011;73431;40.794;43.836;2024-03-23T04:50:20;7.75;;;5.28;;
83495;SDS011;73431;40.794;43.836;2024-03-23T04:52:49;8.88;;;5.38;;
83495;SDS011;73431;40.794;43.836;2024-03-23T04:57:41;9.25;;;5.28;;
83495;SDS011;73431;40.794;43.836;2024-03-23T05:00:08;12.65;;;5.93;;
83495;SDS011;73431;40.794;43.836;2024-03-23T05:02:43;9.68;;;6.30;;
83495;SDS011;73431;40.794;43.836;2024-03-23T05:07:37;16.90;;;7.70;;
83495;SDS011;73431;40.794;43.836;2024-03-23T05:10:03;11.88;;;7.40;;
83495;SDS011;73431;40.794;43.836;2024-03-23T05:12:30;17.70;;;7.88;;
83495;SDS011;73431;40.794;43.836;2024-03-23T05:14:57;15.02;;;7.72;;
83495;SDS011;73431;40.794;43.836;2024-03-23T05:17:24;20.48;;;9.68;;
83495;SDS011;73431;40.794;43.836;2024-03-23T05:19:50;16.98;;;8.32;;
83495;SDS011;73431;40.794;43.836;2024-03-23T05:22:17;15.95;;;8.98;;
83495;SDS011;73431;40.794;43.836;2024-03-23T05:24:44;11.77;;;6.45;;
83495;SDS011;73431;40.794;43.836;2024-03-23T05:29:38;15.75;;;7.65;;
83495;SDS011;73431;40.794;43.836;2024-03-23T05:32:04;12.13;;;6.25;;
83495;SDS011;73431;40.794;43.836;2024-03-23T05:34:31;11.32;;;5.63;;
83495;SDS011;73431;40.794;43.836;2024-03-23T05:36:57;14.10;;;6.90;;
83495;SDS011;73431;40.794;43.836;2024-03-23T05:39:24;9.77;;;5.65;;
83495;SDS011;73431;40.794;43.836;2024-03-23T05:41:50;10.55;;;4.68;;
83495;SDS011;73431;40.794;43.836;2024-03-23T05:44:16;10.07;;;4.28;;
83495;SDS011;73431;40.794;43.836;2024-03-23T05:46:43;8.35;;;4.60;;
83495;SDS011;73431;40.794;43.836;2024-03-23T05:49:15;7.47;;;4.43;;
83495;SDS011;73431;40.794;43.836;2024-03-23T05:51:42;8.88;;;4.47;;
83495;SDS011;73431;40.794;43.836;2024-03-23T05:54:08;6.03;;;3.08;;
83495;SDS011;73431;40.794;43.836;2024-03-23T05:56:35;5.15;;;2.15;;
83495;SDS011;73431;40.794;43.836;2024-03-23T05:59:01;5.25;;;2.42;;
83495;SDS011;73431;40.794;43.836;2024-03-23T06:01:29;4.47;;;2.70;;
83495;SDS011;73431;40.794;43.836;2024-03-23T06:03:58;5.82;;;2.88;;
83495;SDS011;73431;40.794;43.836;2024-03-23T06:06:27;3.65;;;2.38;;
83495;SDS011;73431;40.794;43.836;2024-03-23T06:08:56;3.63;;;2.47;;
83495;SDS011;73431;40.794;43.836;2024-03-23T06:11:22;3.05;;;2.20;;
83495;SDS011;73431;40.794;43.836;2024-03-23T06:13:49;3.92;;;2.50;;
83495;SDS011;73431;40.794;43.836;2024-03-23T06:16:15;5.25;;;2.00;;
83495;SDS011;73431;40.794;43.836;2024-03-23T06:18:42;4.25;;;2.70;;
83495;SDS011;73431;40.794;43.836;2024-03-23T06:21:13;3.97;;;2.40;;
83495;SDS011;73431;40.794;43.836;2024-03-23T06:23:40;4.72;;;3.05;;
83495;SDS011;73431;40.794;43.836;2024-03-23T06:26:07;4.75;;;2.60;;
83495;SDS011;73431;40.794;43.836;2024-03-23T06:28:34;2.30;;;1.60;;
83495;SDS011;73431;40.794;43.836;2024-03-23T06:31:01;3.08;;;2.20;;
83495;SDS011;73431;40.794;43.836;2024-03-23T06:33:28;7.63;;;2.85;;
83495;SDS011;73431;40.794;43.836;2024-03-23T06:35:55;3.75;;;2.25;;
83495;SDS011;73431;40.794;43.836;2024-03-23T06:38:21;4.25;;;1.98;;
83495;SDS011;73431;40.794;43.836;2024-03-23T06:40:48;4.90;;;2.30;;
83495;SDS011;73431;40.794;43.836;2024-03-23T06:43:16;5.18;;;2.60;;
83495;SDS011;73431;40.794;43.836;2024-03-23T06:45:43;3.55;;;1.88;;
83495;SDS011;73431;40.794;43.836;2024-03-23T06:48:09;3.63;;;2.20;;
83495;SDS011;73431;40.794;43.836;2024-03-23T06:50:36;4.93;;;1.88;;
83495;SDS011;73431;40.794;43.836;2024-03-23T06:53:02;5.88;;;2.42;;
83495;SDS011;73431;40.794;43.836;2024-03-23T06:55:31;3.80;;;2.55;;
83495;SDS011;73431;40.794;43.836;2024-03-23T06:57:58;3.58;;;2.28;;
83495;SDS011;73431;40.794;43.836;2024-03-23T07:00:24;2.97;;;2.10;;
83495;SDS011;73431;40.794;43.836;2024-03-23T07:02:51;4.43;;;2.70;;
83495;SDS011;73431;40.794;43.836;2024-03-23T07:05:18;6.03;;;1.95;;
83495;SDS011;73431;40.794;43.836;2024-03-23T07:07:44;5.25;;;2.25;;
83495;SDS011;73431;40.794;43.836;2024-03-23T07:10:11;2.08;;;1.63;;
83495;SDS011;73431;40.794;43.836;2024-03-23T07:12:38;3.80;;;2.00;;
83495;SDS011;73431;40.794;43.836;2024-03-23T07:15:05;2.90;;;1.92;;
83495;SDS011;73431;40.794;43.836;2024-03-23T07:17:32;3.35;;;2.08;;
83495;SDS011;73431;40.794;43.836;2024-03-23T07:19:59;3.33;;;2.33;;
83495;SDS011;73431;40.794;43.836;2024-03-23T07:22:27;4.50;;;2.13;;
83495;SDS011;73431;40.794;43.836;2024-03-23T07:24:54;5.40;;;2.30;;
83495;SDS011;73431;40.794;43.836;2024-03-23T07:27:24;7.45;;;2.53;;
83495;SDS011;73431;40.794;43.836;2024-03-23T07:29:50;5.90;;;2.45;;
83495;SDS011;73431;40.794;43.836;2024-03-23T07:32:17;5.15;;;1.95;;
83495;SDS011;73431;40.794;43.836;2024-03-23T07:34:43;5.30;;;2.92;;
83495;SDS011;73431;40.794;43.836;2024-03-23T07:37:13;4.18;;;2.38;;
83495;SDS011;73431;40.794;43.836;2024-03-23T07:39:39;3.42;;;2.33;;
83495;SDS011;73431;40.794;43.836;2024-03-23T07:42:06;4.10;;;2.50;;
83495;SDS011;73431;40.794;43.836;2024-03-23T07:44:32;4.13;;;2.78;;
83495;SDS011;73431;40.794;43.836;2024-03-23T07:47:02;3.28;;;2.22;;
83495;SDS011;73431;40.794;43.836;2024-03-23T07:49:28;5.75;;;2.40;;
83495;SDS011;73431;40.794;43.836;2024-03-23T07:51:55;4.90;;;2.90;;
83495;SDS011;73431;40.794;43.836;2024-03-23T07:54:21;2.70;;;1.88;;
83495;SDS011;73431;40.794;43.836;2024-03-23T07:56:48;4.45;;;2.10;;
83495;SDS011;73431;40.794;43.836;2024-03-23T07:59:14;4.75;;;2.30;;
83495;SDS011;73431;40.794;43.836;2024-03-23T08:01:41;3.58;;;1.88;;
83495;SDS011;73431;40.794;43.836;2024-03-23T08:04:07;3.22;;;2.53;;
83495;SDS011;73431;40.794;43.836;2024-03-23T08:06:34;3.15;;;2.17;;
83495;SDS011;73431;40.794;43.836;2024-03-23T08:09:00;3.80;;;1.90;;
83495;SDS011;73431;40.794;43.836;2024-03-23T08:11:27;2.78;;;2.13;;
83495;SDS011;73431;40.794;43.836;2024-03-23T08:13:55;4.53;;;3.35;;
83495;SDS011;73431;40.794;43.836;2024-03-23T08:16:22;4.55;;;2.40;;
83495;SDS011;73431;40.794;43.836;2024-03-23T08:18:52;6.60;;;3.25;;
83495;SDS011;73431;40.794;43.836;2024-03-23T08:21:19;3.67;;;2.55;;
83495;SDS011;73431;40.794;43.836;2024-03-23T08:23:45;3.03;;;1.83;;
83495;SDS011;73431;40.794;43.836;2024-03-23T08:26:13;3.85;;;2.25;;
83495;SDS011;73431;40.794;43.836;2024-03-23T08:28:45;4.50;;;2.70;;
83495;SDS011;73431;40.794;43.836;2024-03-23T08:31:13;4.78;;;2.42;;
83495;SDS011;73431;40.794;43.836;2024-03-23T08:33:43;3.45;;;2.05;;
83495;SDS011;73431;40.794;43.836;2024-03-23T08:36:10;4.57;;;2.22;;
83495;SDS011;73431;40.794;43.836;2024-03-23T08:38:40;4.68;;;2.42;;
83495;SDS011;73431;40.794;43.836;2024-03-23T08:41:07;6.25;;;2.47;;
83495;SDS011;73431;40.794;43.836;2024-03-23T08:48:35;5.95;;;2.42;;
83495;SDS011;73431;40.794;43.836;2024-03-23T08:51:03;4.45;;;2.58;;
83495;SDS011;73431;40.794;43.836;2024-03-23T08:53:30;5.63;;;2.85;;
83495;SDS011;73431;40.794;43.836;2024-03-23T08:55:58;49.58;;;5.00;;
83495;SDS011;73431;40.794;43.836;2024-03-23T08:58:27;2.63;;;1.92;;
83495;SDS011;73431;40.794;43.836;2024-03-23T09:03:22;5.72;;;2.75;;
83495;SDS011;73431;40.794;43.836;2024-03-23T09:05:50;4.05;;;2.47;;
83495;SDS011;73431;40.794;43.836;2024-03-23T09:08:18;5.50;;;2.58;;
83495;SDS011;73431;40.794;43.836;2024-03-23T09:10:45;4.57;;;2.25;;
83495;SDS011;73431;40.794;43.836;2024-03-23T09:13:11;3.95;;;2.20;;
83495;SDS011;73431;40.794;43.836;2024-03-23T09:15:45;3.53;;;2.45;;
83495;SDS011;73431;40.794;43.836;2024-03-23T09:18:15;6.95;;;3.67;;
83495;SDS011;73431;40.794;43.836;2024-03-23T09:20:42;3.42;;;2.78;;
83495;SDS011;73431;40.794;43.836;2024-03-23T09:23:08;5.53;;;2.13;;
83495;SDS011;73431;40.794;43.836;2024-03-23T09:25:38;2.95;;;2.25;;
83495;SDS011;73431;40.794;43.836;2024-03-23T09:28:05;5.28;;;2.30;;
83495;SDS011;73431;40.794;43.836;2024-03-23T09:30:35;4.50;;;2.83;;
83495;SDS011;73431;40.794;43.836;2024-03-23T09:33:02;6.95;;;4.47;;
83495;SDS011;73431;40.794;43.836;2024-03-23T09:35:29;7.82;;;4.40;;
83495;SDS011;73431;40.794;43.836;2024-03-23T09:37:55;6.57;;;4.55;;
83495;SDS011;73431;40.794;43.836;2024-03-23T09:40:23;5.43;;;3.97;;
83495;SDS011;73431;40.794;43.836;2024-03-23T09:42:50;7.57;;;4.53;;
83495;SDS011;73431;40.794;43.836;2024-03-23T09:45:17;6.70;;;4.72;;
83495;SDS011;73431;40.794;43.836;2024-03-23T09:47:48;7.57;;;4.10;;
83495;SDS011;73431;40.794;43.836;2024-03-23T09:50:16;9.40;;;5.43;;
83495;SDS011;73431;40.794;43.836;2024-03-23T09:52:43;7.63;;;5.72;;
83495;SDS011;73431;40.794;43.836;2024-03-23T09:55:11;9.48;;;5.88;;
83495;SDS011;73431;40.794;43.836;2024-03-23T09:57:38;7.13;;;4.57;;
83495;SDS011;73431;40.794;43.836;2024-03-23T10:00:06;10.02;;;5.90;;
83495;SDS011;73431;40.794;43.836;2024-03-23T10:02:33;15.60;;;7.47;;
83495;SDS011;73431;40.794;43.836;2024-03-23T10:05:01;12.15;;;5.18;;
83495;SDS011;73431;40.794;43.836;2024-03-23T10:07:28;11.30;;;7.30;;
83495;SDS011;73431;40.794;43.836;2024-03-23T10:09:55;9.48;;;6.05;;
83495;SDS011;73431;40.794;43.836;2024-03-23T10:12:22;9.43;;;5.85;;
83495;SDS011;73431;40.794;43.836;2024-03-23T10:14:50;6.43;;;4.40;;
83495;SDS011;73431;40.794;43.836;2024-03-23T10:17:20;6.70;;;3.65;;
83495;SDS011;73431;40.794;43.836;2024-03-23T10:19:52;9.85;;;5.90;;
83495;SDS011;73431;40.794;43.836;2024-03-23T10:22:20;8.60;;;5.90;;
83495;SDS011;73431;40.794;43.836;2024-03-23T10:24:48;4.60;;;3.63;;
83495;SDS011;73431;40.794;43.836;2024-03-23T10:27:15;11.70;;;7.13;;
83495;SDS011;73431;40.794;43.836;2024-03-23T10:29:46;9.00;;;5.72;;
83495;SDS011;73431;40.794;43.836;2024-03-23T10:32:14;8.60;;;4.95;;
83495;SDS011;73431;40.794;43.836;2024-03-23T10:34:42;6.45;;;3.75;;
83495;SDS011;73431;40.794;43.836;2024-03-23T10:37:09;7.45;;;4.13;;
83495;SDS011;73431;40.794;43.836;2024-03-23T10:39:37;6.53;;;3.88;;
83495;SDS011;73431;40.794;43.836;2024-03-23T10:42:06;4.43;;;3.33;;
83495;SDS011;73431;40.794;43.836;2024-03-23T10:44:38;5.25;;;3.35;;
83495;SDS011;73431;40.794;43.836;2024-03-23T10:47:05;6.82;;;3.65;;
83495;SDS011;73431;40.794;43.836;2024-03-23T10:49:32;5.68;;;3.55;;
83495;SDS011;73431;40.794;43.836;2024-03-23T10:52:00;6.07;;;5.07;;
83495;SDS011;73431;40.794;43.836;2024-03-23T10:54:32;5.80;;;3.50;;
83495;SDS011;73431;40.794;43.836;2024-03-23T10:57:02;6.15;;;3.35;;
83495;SDS011;73431;40.794;43.836;2024-03-23T10:59:33;6.15;;;4.57;;
83495;SDS011;73431;40.794;43.836;2024-03-23T11:02:03;6.00;;;4.38;;
83495;SDS011;73431;40.794;43.836;2024-03-23T11:04:37;7.15;;;4.95;;
83495;SDS011;73431;40.794;43.836;2024-03-23T11:09:50;19.58;;;14.18;;
83495;SDS011;73431;40.794;43.836;2024-03-23T11:14:47;11.48;;;7.18;;
83495;SDS011;73431;40.794;43.836;2024-03-23T11:17:18;6.78;;;3.83;;
83495;SDS011;73431;40.794;43.836;2024-03-23T11:19:58;4.93;;;3.60;;
83495;SDS011;73431;40.794;43.836;2024-03-23T11:25:12;6.30;;;4.18;;
83495;SDS011;73431;40.794;43.836;2024-03-23T11:30:11;7.22;;;4.20;;
83495;SDS011;73431;40.794;43.836;2024-03-23T11:32:38;7.60;;;3.80;;
83495;SDS011;73431;40.794;43.836;2024-03-23T11:35:05;5.40;;;3.97;;
83495;SDS011;73431;40.794;43.836;2024-03-23T11:37:32;5.63;;;3.53;;
83495;SDS011;73431;40.794;43.836;2024-03-23T11:39:58;9.15;;;4.25;;
83495;SDS011;73431;40.794;43.836;2024-03-23T11:42:24;9.13;;;5.85;;
83495;SDS011;73431;40.794;43.836;2024-03-23T11:44:51;5.88;;;4.47;;
83495;SDS011;73431;40.794;43.836;2024-03-23T11:47:18;7.43;;;5.40;;
83495;SDS011;73431;40.794;43.836;2024-03-23T11:49:44;7.82;;;5.70;;
83495;SDS011;73431;40.794;43.836;2024-03-23T11:52:11;7.65;;;5.28;;
83495;SDS011;73431;40.794;43.836;2024-03-23T11:54:38;5.93;;;4.25;;
83495;SDS011;73431;40.794;43.836;2024-03-23T11:57:07;5.50;;;3.65;;
83495;SDS011;73431;40.794;43.836;2024-03-23T11:59:35;10.35;;;3.35;;
83495;SDS011;73431;40.794;43.836;2024-03-23T12:02:10;5.43;;;3.33;;
83495;SDS011;73431;40.794;43.836;2024-03-23T12:04:41;5.55;;;3.70;;
83495;SDS011;73431;40.794;43.836;2024-03-23T12:07:15;4.93;;;3.53;;
83495;SDS011;73431;40.794;43.836;2024-03-23T12:09:46;6.07;;;3.63;;
83495;SDS011;73431;40.794;43.836;2024-03-23T12:12:28;6.25;;;3.53;;
83495;SDS011;73431;40.794;43.836;2024-03-23T12:17:31;5.88;;;2.78;;
83495;SDS011;73431;40.794;43.836;2024-03-23T12:19:58;3.78;;;2.58;;
83495;SDS011;73431;40.794;43.836;2024-03-23T12:22:26;5.70;;;3.35;;
83495;SDS011;73431;40.794;43.836;2024-03-23T12:24:55;5.25;;;3.47;;
83495;SDS011;73431;40.794;43.836;2024-03-23T12:27:22;5.40;;;3.80;;
83495;SDS011;73431;40.794;43.836;2024-03-23T12:29:49;8.05;;;3.53;;
83495;SDS011;73431;40.794;43.836;2024-03-23T12:32:15;6.25;;;4.20;;
83495;SDS011;73431;40.794;43.836;2024-03-23T12:34:42;8.45;;;4.80;;
83495;SDS011;73431;40.794;43.836;2024-03-23T12:37:08;10.52;;;4.00;;
83495;SDS011;73431;40.794;43.836;2024-03-23T12:39:35;6.15;;;3.63;;
83495;SDS011;73431;40.794;43.836;2024-03-23T12:42:02;6.93;;;3.80;;
83495;SDS011;73431;40.794;43.836;2024-03-23T12:44:29;4.90;;;3.33;;
83495;SDS011;73431;40.794;43.836;2024-03-23T12:46:56;5.75;;;3.70;;
83495;SDS011;73431;40.794;43.836;2024-03-23T12:49:22;12.02;;;7.82;;
83495;SDS011;73431;40.794;43.836;2024-03-23T12:51:55;17.92;;;9.05;;
83495;SDS011;73431;40.794;43.836;2024-03-23T12:54:22;23.83;;;14.40;;
83495;SDS011;73431;40.794;43.836;2024-03-23T12:56:49;13.75;;;8.73;;
83495;SDS011;73431;40.794;43.836;2024-03-23T12:59:15;14.07;;;7.65;;
83495;SDS011;73431;40.794;43.836;2024-03-23T13:01:44;15.75;;;8.98;;
83495;SDS011;73431;40.794;43.836;2024-03-23T13:04:11;12.25;;;7.53;;
83495;SDS011;73431;40.794;43.836;2024-03-23T13:06:37;35.05;;;17.52;;
83495;SDS011;73431;40.794;43.836;2024-03-23T13:09:04;27.05;;;15.65;;
83495;SDS011;73431;40.794;43.836;2024-03-23T13:11:31;18.83;;;12.48;;
83495;SDS011;73431;40.794;43.836;2024-03-23T13:13:58;22.00;;;15.00;;
83495;SDS011;73431;40.794;43.836;2024-03-23T13:16:24;20.75;;;13.68;;
83495;SDS011;73431;40.794;43.836;2024-03-23T13:18:51;18.35;;;11.60;;
83495;SDS011;73431;40.794;43.836;2024-03-23T13:21:17;17.02;;;11.77;;
83495;SDS011;73431;40.794;43.836;2024-03-23T13:23:47;15.93;;;10.30;;
83495;SDS011;73431;40.794;43.836;2024-03-23T13:26:16;21.67;;;11.82;;
83495;SDS011;73431;40.794;43.836;2024-03-23T13:28:42;25.85;;;14.15;;
83495;SDS011;73431;40.794;43.836;2024-03-23T13:31:10;19.23;;;11.13;;
83495;SDS011;73431;40.794;43.836;2024-03-23T13:33:37;15.07;;;8.38;;
83495;SDS011;73431;40.794;43.836;2024-03-23T13:36:03;12.82;;;8.45;;
83495;SDS011;73431;40.794;43.836;2024-03-23T13:38:30;17.88;;;8.93;;
83495;SDS011;73431;40.794;43.836;2024-03-23T13:40:57;12.05;;;7.53;;
83495;SDS011;73431;40.794;43.836;2024-03-23T13:45:55;14.23;;;7.75;;
83495;SDS011;73431;40.794;43.836;2024-03-23T13:48:24;14.40;;;9.55;;
83495;SDS011;73431;40.794;43.836;2024-03-23T13:53:27;16.23;;;10.15;;
83495;SDS011;73431;40.794;43.836;2024-03-23T13:55:54;17.27;;;10.55;;
83495;SDS011;73431;40.794;43.836;2024-03-23T13:58:21;16.77;;;10.00;;
83495;SDS011;73431;40.794;43.836;2024-03-23T14:00:49;14.85;;;9.30;;
83495;SDS011;73431;40.794;43.836;2024-03-23T14:03:16;10.77;;;7.15;;
83495;SDS011;73431;40.794;43.836;2024-03-23T14:08:10;10.57;;;7.72;;
83495;SDS011;73431;40.794;43.836;2024-03-23T14:10:40;13.48;;;7.40;;
83495;SDS011;73431;40.794;43.836;2024-03-23T14:13:07;9.52;;;5.35;;
83495;SDS011;73431;40.794;43.836;2024-03-23T14:15:33;13.35;;;8.50;;
83495;SDS011;73431;40.794;43.836;2024-03-23T14:18:00;14.00;;;6.45;;
83495;SDS011;73431;40.794;43.836;2024-03-23T14:20:26;9.77;;;6.43;;
83495;SDS011;73431;40.794;43.836;2024-03-23T14:22:53;9.82;;;5.22;;
83495;SDS011;73431;40.794;43.836;2024-03-23T14:25:20;10.63;;;6.43;;
83495;SDS011;73431;40.794;43.836;2024-03-23T14:27:49;10.80;;;6.45;;
83495;SDS011;73431;40.794;43.836;2024-03-23T14:30:15;12.57;;;7.40;;
83495;SDS011;73431;40.794;43.836;2024-03-23T14:32:42;9.90;;;5.38;;
83495;SDS011;73431;40.794;43.836;2024-03-23T14:35:09;9.82;;;5.55;;
83495;SDS011;73431;40.794;43.836;2024-03-23T14:37:36;10.07;;;5.93;;
83495;SDS011;73431;40.794;43.836;2024-03-23T14:40:04;12.13;;;5.88;;
83495;SDS011;73431;40.794;43.836;2024-03-23T14:42:30;15.15;;;8.70;;
83495;SDS011;73431;40.794;43.836;2024-03-23T14:44:58;26.90;;;10.57;;
83495;SDS011;73431;40.794;43.836;2024-03-23T14:47:25;14.23;;;7.85;;
83495;SDS011;73431;40.794;43.836;2024-03-23T14:49:52;14.88;;;9.80;;
83495;SDS011;73431;40.794;43.836;2024-03-23T14:52:18;13.13;;;7.75;;
83495;SDS011;73431;40.794;43.836;2024-03-23T14:54:46;12.68;;;7.85;;
83495;SDS011;73431;40.794;43.836;2024-03-23T14:57:12;11.73;;;6.60;;
83495;SDS011;73431;40.794;43.836;2024-03-23T14:59:39;14.60;;;8.55;;
83495;SDS011;73431;40.794;43.836;2024-03-23T15:02:09;14.52;;;7.57;;
83495;SDS011;73431;40.794;43.836;2024-03-23T15:04:36;19.10;;;10.45;;
83495;SDS011;73431;40.794;43.836;2024-03-23T15:07:03;18.52;;;9.40;;
83495;SDS011;73431;40.794;43.836;2024-03-23T15:09:30;18.33;;;10.52;;
83495;SDS011;73431;40.794;43.836;2024-03-23T15:11:58;16.00;;;9.70;;
83495;SDS011;73431;40.794;43.836;2024-03-23T15:14:24;18.60;;;10.63;;
83495;SDS011;73431;40.794;43.836;2024-03-23T15:16:51;13.63;;;8.02;;
83495;SDS011;73431;40.794;43.836;2024-03-23T15:19:21;12.80;;;6.63;;
83495;SDS011;73431;40.794;43.836;2024-03-23T15:21:48;14.23;;;5.45;;
83495;SDS011;73431;40.794;43.836;2024-03-23T15:24:17;6.93;;;4.85;;
83495;SDS011;73431;40.794;43.836;2024-03-23T15:26:44;5.72;;;3.67;;
83495;SDS011;73431;40.794;43.836;2024-03-23T15:29:10;5.93;;;3.45;;
83495;SDS011;73431;40.794;43.836;2024-03-23T15:31:42;5.07;;;3.10;;
83495;SDS011;73431;40.794;43.836;2024-03-23T15:34:09;8.55;;;4.70;;
83495;SDS011;73431;40.794;43.836;2024-03-23T15:36:36;11.82;;;5.07;;
83495;SDS011;73431;40.794;43.836;2024-03-23T15:39:06;14.07;;;6.72;;
83495;SDS011;73431;40.794;43.836;2024-03-23T15:41:33;13.70;;;7.13;;
83495;SDS011;73431;40.794;43.836;2024-03-23T15:44:01;7.05;;;5.43;;
83495;SDS011;73431;40.794;43.836;2024-03-23T15:46:28;10.30;;;5.97;;
83495;SDS011;73431;40.794;43.836;2024-03-23T15:48:55;13.02;;;6.63;;
83495;SDS011;73431;40.794;43.836;2024-03-23T15:51:21;13.00;;;8.25;;
83495;SDS011;73431;40.794;43.836;2024-03-23T15:53:48;14.73;;;8.07;;
83495;SDS011;73431;40.794;43.836;2024-03-23T15:56:18;18.05;;;8.27;;
83495;SDS011;73431;40.794;43.836;2024-03-23T15:58:44;17.27;;;8.70;;
83495;SDS011;73431;40.794;43.836;2024-03-23T16:01:12;22.42;;;10.15;;